Time;durP1;ratioP1;P1;durP2;ratioP2;P2;SDS_P1;SDS_P2;PMS_P1;PMS_P2;Temp;Humidity;BMP_temperature;BMP_pressure;BME280_temperature;BME280_humidity;BME280_pressure;Samples;Min_cycle;Max_cycle;Signal;HPM_P1;HPM_P2
2023/12/27 00:01:45;;;;;;;4.47;3.78;;;;;;;9.67;55.22;95192.03;5140833;27;20602;-72
2023/12/27 00:04:16;;;;;;;4.97;3.60;;;;;;;9.67;55.49;95192.81;5141035;27;20239;-72
2023/12/27 00:06:44;;;;;;;4.70;3.88;;;;;;;9.69;55.35;95200.72;5157843;27;20228;-72
2023/12/27 00:09:13;;;;;;;5.53;4.13;;;;;;;9.68;55.43;95197.19;5158870;27;20212;-72
2023/12/27 00:11:41;;;;;;;6.07;3.95;;;;;;;9.71;55.62;95206.72;5158146;27;20206;-72
2023/12/27 00:14:09;;;;;;;5.30;3.90;;;;;;;9.71;55.55;95204.75;5140274;27;20190;-72
2023/12/27 00:16:38;;;;;;;5.43;3.90;;;;;;;9.71;55.70;95210.25;5157294;27;20213;-72
2023/12/27 00:19:14;;;;;;;3.83;3.20;;;;;;;9.72;55.64;95211.88;5140412;27;20194;-72
2023/12/27 00:21:41;;;;;;;5.78;3.83;;;;;;;9.72;55.56;95216.56;5157418;27;20224;-71
2023/12/27 00:24:09;;;;;;;7.43;4.00;;;;;;;9.72;55.75;95222.09;5157945;27;20203;-71
2023/12/27 00:26:38;;;;;;;5.38;3.40;;;;;;;9.72;55.85;95219.31;5140392;27;20186;-71
2023/12/27 00:29:05;;;;;;;5.28;3.78;;;;;;;9.72;55.84;95227.59;5157413;27;20218;-71
2023/12/27 00:31:35;;;;;;;5.85;4.18;;;;;;;9.73;55.91;95227.25;5157739;27;20202;-71
2023/12/27 00:34:05;;;;;;;5.63;4.13;;;;;;;9.76;55.76;95228.50;5139667;27;20205;-71
2023/12/27 00:36:33;;;;;;;4.68;3.65;;;;;;;9.76;55.88;95231.25;5140200;27;20190;-71
2023/12/27 00:39:01;;;;;;;5.43;3.72;;;;;;;9.74;56.06;95234.38;5157746;27;20226;-71
2023/12/27 00:41:29;;;;;;;5.22;3.63;;;;;;;9.75;55.97;95235.19;5157810;27;20191;-71
2023/12/27 00:43:56;;;;;;;6.43;3.70;;;;;;;9.76;56.17;95229.31;5139916;27;20503;-71
2023/12/27 00:46:25;;;;;;;4.80;3.55;;;;;;;9.78;56.18;95234.50;5138542;27;20219;-72
2023/12/27 00:48:55;;;;;;;5.40;3.80;;;;;;;9.76;55.88;95234.00;5157622;27;20195;-72
2023/12/27 00:51:22;;;;;;;7.53;4.28;;;;;;;9.76;56.06;95243.09;5157521;27;20209;-72
2023/12/27 00:53:55;;;;;;;4.90;3.78;;;;;;;9.75;56.20;95246.19;5139046;27;20640;-72
2023/12/27 00:56:24;;;;;;;5.78;3.53;;;;;;;9.75;55.98;95252.50;5157141;27;20215;-72
2023/12/27 00:58:54;;;;;;;5.57;3.80;;;;;;;9.74;55.98;95250.91;5158045;27;20250;-72
2023/12/27 01:01:23;;;;;;;4.97;3.97;;;;;;;9.72;56.09;95255.94;5157321;27;20187;-72
2023/12/27 01:03:51;;;;;;;5.82;3.97;;;;;;;9.55;57.09;95269.91;5138882;27;20219;-72
2023/12/27 01:06:18;;;;;;;5.25;4.32;;;;;;;9.30;57.20;95272.63;5130850;27;20660;-72
2023/12/27 01:08:49;;;;;;;6.57;4.25;;;;;;;9.12;57.88;95271.97;5136453;27;20183;-72
2023/12/27 01:11:22;;;;;;;6.20;4.63;;;;;;;9.02;58.46;95277.91;5118869;28;20190;-72
2023/12/27 01:13:51;;;;;;;7.70;4.97;;;;;;;8.88;59.01;95278.19;5136467;27;20200;-73
2023/12/27 01:16:24;;;;;;;6.82;5.40;;;;;;;8.74;59.57;95285.91;5118087;28;20226;-73
2023/12/27 01:18:51;;;;;;;6.43;5.03;;;;;;;8.60;60.30;95282.63;5118068;27;20194;-72
2023/12/27 01:21:18;;;;;;;7.53;5.70;;;;;;;8.50;60.50;95278.34;5118745;28;20222;-73
2023/12/27 01:23:49;;;;;;;8.45;5.43;;;;;;;8.44;60.68;95277.72;5135959;27;20219;-73
2023/12/27 01:26:18;;;;;;;6.57;4.70;;;;;;;8.39;60.73;95277.94;5118109;28;20215;-72
2023/12/27 01:28:49;;;;;;;5.10;4.60;;;;;;;8.39;61.01;95288.91;5137138;28;20633;-73
2023/12/27 01:31:18;;;;;;;5.93;4.45;;;;;;;8.36;61.19;95286.00;5136220;28;20184;-73
2023/12/27 01:33:47;;;;;;;7.35;4.65;;;;;;;8.50;61.16;95285.78;5118407;28;20278;-74
2023/12/27 01:36:14;;;;;;;7.95;4.80;;;;;;;8.66;60.78;95282.09;5136628;28;20178;-73
2023/12/27 01:38:43;;;;;;;5.25;4.20;;;;;;;8.82;60.53;95289.72;5118399;28;20191;-74
2023/12/27 01:41:10;;;;;;;5.85;4.65;;;;;;;8.94;60.02;95286.25;5118736;28;20187;-73
2023/12/27 01:43:37;;;;;;;7.68;4.50;;;;;;;9.06;59.76;95275.28;5136411;28;20187;-74
2023/12/27 01:46:10;;;;;;;6.05;4.18;;;;;;;9.15;59.65;95276.00;5118094;28;20541;-71
2023/12/27 01:48:40;;;;;;;4.72;4.30;;;;;;;9.23;59.33;95291.63;5136086;28;20214;-73
2023/12/27 01:51:12;;;;;;;5.93;4.38;;;;;;;9.27;59.19;95295.31;5136060;28;20251;-73
2023/12/27 01:53:42;;;;;;;6.22;4.25;;;;;;;9.32;59.13;95297.84;5101359;28;20210;-73
2023/12/27 01:56:13;;;;;;;5.68;4.38;;;;;;;9.37;58.91;95302.34;5135685;28;20183;-73
2023/12/27 01:58:40;;;;;;;6.85;4.40;;;;;;;9.42;58.64;95295.81;5121444;27;20199;-73
2023/12/27 02:01:09;;;;;;;5.80;4.47;;;;;;;9.45;58.83;95306.94;5140144;27;20183;-73
2023/12/27 02:03:37;;;;;;;5.55;4.10;;;;;;;9.48;58.48;95295.25;5140194;27;20175;-73
2023/12/27 02:06:08;;;;;;;4.93;3.90;;;;;;;9.49;58.63;95293.31;5122305;27;20222;-73
2023/12/27 02:08:41;;;;;;;5.55;3.92;;;;;;;9.48;58.62;95305.47;5122665;27;20686;-73
2023/12/27 02:11:10;;;;;;;4.60;4.10;;;;;;;9.48;58.86;95311.00;5140197;27;20262;-73
2023/12/27 02:13:42;;;;;;;5.38;3.90;;;;;;;9.48;58.88;95306.28;5121856;27;20277;-73
2023/12/27 02:16:11;;;;;;;5.22;4.05;;;;;;;9.51;58.97;95313.03;5139772;27;20207;-73
2023/12/27 02:18:43;;;;;;;5.60;4.30;;;;;;;9.54;59.13;95304.09;5122132;27;20226;-73
2023/12/27 02:21:10;;;;;;;5.80;4.15;;;;;;;9.57;59.18;95300.66;5139949;27;20171;-73
2023/12/27 02:23:39;;;;;;;5.20;4.25;;;;;;;9.59;59.27;95307.44;5121567;27;20232;-73
2023/12/27 02:26:11;;;;;;;5.07;4.57;;;;;;;9.63;59.16;95297.34;5139544;27;20263;-73
2023/12/27 02:28:40;;;;;;;5.88;4.30;;;;;;;9.62;59.25;95293.00;5121525;27;20252;-73
2023/12/27 02:31:12;;;;;;;4.78;4.28;;;;;;;9.63;59.41;95286.34;5122031;27;20199;-73
2023/12/27 02:33:44;;;;;;;5.97;3.83;;;;;;;9.64;59.45;95292.66;5120968;27;20207;-73
2023/12/27 02:36:12;;;;;;;7.72;4.65;;;;;;;9.64;59.37;95295.41;5121260;27;20207;-73
2023/12/27 02:38:39;;;;;;;5.50;3.85;;;;;;;9.64;59.40;95301.72;5121713;27;20206;-73
2023/12/27 02:41:07;;;;;;;6.63;4.75;;;;;;;9.63;59.39;95296.56;5138941;27;20210;-73
2023/12/27 02:43:39;;;;;;;4.97;4.00;;;;;;;9.62;59.63;95293.00;5121861;27;20187;-73
2023/12/27 02:46:06;;;;;;;6.55;4.38;;;;;;;9.60;59.71;95300.78;5139141;27;20221;-72
2023/12/27 02:48:33;;;;;;;5.93;4.35;;;;;;;9.61;59.61;95307.91;5139207;27;20210;-71
2023/12/27 02:51:00;;;;;;;5.60;4.32;;;;;;;9.61;59.80;95305.16;5120878;27;20263;-72
2023/12/27 02:53:27;;;;;;;7.10;4.38;;;;;;;9.59;59.70;95303.91;5121387;27;20219;-73
2023/12/27 02:55:57;;;;;;;6.28;4.40;;;;;;;9.57;59.83;95304.22;5121761;27;20202;-73
2023/12/27 02:58:27;;;;;;;6.25;4.65;;;;;;;9.56;59.85;95313.63;5120880;27;20543;-73
2023/12/27 03:00:56;;;;;;;6.25;4.38;;;;;;;9.55;59.82;95314.78;5120371;27;20203;-73
2023/12/27 03:03:23;;;;;;;5.53;4.50;;;;;;;9.56;59.97;95321.09;5139122;27;20221;-73
2023/12/27 03:05:51;;;;;;;7.45;4.88;;;;;;;9.56;59.83;95316.38;5134860;27;20259;-73
2023/12/27 03:08:22;;;;;;;5.93;4.43;;;;;;;9.56;59.83;95327.41;5100736;28;20291;-73
2023/12/27 03:10:55;;;;;;;6.18;4.68;;;;;;;9.57;60.00;95323.50;5042480;28;20190;-73
2023/12/27 03:13:22;;;;;;;7.85;4.25;;;;;;;9.56;60.08;95326.59;5034491;28;20190;-73
2023/12/27 03:15:49;;;;;;;5.43;4.40;;;;;;;9.55;60.14;95334.06;5034342;28;20229;-73
2023/12/27 03:18:18;;;;;;;5.80;4.65;;;;;;;9.54;59.85;95331.63;5103160;28;20194;-73
2023/12/27 03:20:46;;;;;;;7.30;4.65;;;;;;;9.50;60.10;95331.50;5034538;28;20206;-73
2023/12/27 03:23:14;;;;;;;5.90;4.28;;;;;;;9.50;60.29;95330.72;5033946;28;20641;-73
2023/12/27 03:25:41;;;;;;;5.07;4.30;;;;;;;9.48;60.23;95344.03;5034122;28;20302;-72
2023/12/27 03:28:09;;;;;;;6.28;3.95;;;;;;;9.46;60.28;95352.59;5034294;28;20274;-72
2023/12/27 03:30:36;;;;;;;6.88;4.28;;;;;;;9.46;60.28;95357.31;5103149;28;20529;-71
2023/12/27 03:33:03;;;;;;;5.88;4.07;;;;;;;9.44;60.31;95360.41;5034061;28;20229;-72
2023/12/27 03:35:32;;;;;;;5.95;4.45;;;;;;;9.42;60.41;95362.69;5102524;28;20294;-71
2023/12/27 03:38:02;;;;;;;5.18;4.32;;;;;;;9.42;60.43;95364.63;5034025;28;20243;-72
2023/12/27 03:40:32;;;;;;;7.35;4.45;;;;;;;9.39;60.42;95358.66;5103354;28;20206;-72
2023/12/27 03:42:58;;;;;;;5.32;4.15;;;;;;;9.38;60.67;95362.56;5034123;28;20255;-72
2023/12/27 03:45:25;;;;;;;6.22;4.13;;;;;;;9.36;60.60;95355.78;5033717;28;20218;-72
2023/12/27 03:48:00;;;;;;;5.28;4.38;;;;;;;9.37;60.68;95360.97;5033837;28;20191;-72
2023/12/27 03:50:28;;;;;;;7.57;4.80;;;;;;;9.34;60.85;95350.63;5102600;28;20209;-72
2023/12/27 03:53:00;;;;;;;7.07;4.70;;;;;;;9.32;61.01;95352.09;5102922;28;20201;-72
2023/12/27 03:55:30;;;;;;;5.85;4.63;;;;;;;9.31;61.07;95354.03;5102172;28;20641;-72
2023/12/27 03:57:57;;;;;;;7.05;4.63;;;;;;;9.30;61.06;95365.41;5033681;28;20210;-72
2023/12/27 04:00:24;;;;;;;8.40;4.40;;;;;;;9.31;61.32;95367.81;5102380;28;20247;-72
2023/12/27 04:02:52;;;;;;;5.70;4.72;;;;;;;9.31;61.41;95367.81;5033202;28;20223;-72
2023/12/27 04:05:23;;;;;;;6.15;4.50;;;;;;;9.31;61.50;95376.06;5033454;28;20299;-72
2023/12/27 04:07:51;;;;;;;7.00;5.00;;;;;;;9.32;61.36;95385.13;5033468;28;20222;-72
2023/12/27 04:10:25;;;;;;;6.63;5.20;;;;;;;9.29;61.34;95380.28;5032611;28;20216;-73
2023/12/27 04:12:52;;;;;;;6.55;5.07;;;;;;;9.30;61.60;95384.66;5033536;28;20202;-73
2023/12/27 04:15:19;;;;;;;6.70;4.93;;;;;;;9.30;61.64;95410.25;5032993;28;20195;-73
2023/12/27 04:17:49;;;;;;;7.85;5.03;;;;;;;9.30;61.81;95401.97;5033730;28;20187;-73
2023/12/27 04:20:16;;;;;;;8.88;5.15;;;;;;;9.31;61.80;95406.34;5032870;28;20187;-73
2023/12/27 04:22:43;;;;;;;7.25;4.65;;;;;;;9.29;61.69;95405.84;5033046;28;20210;-73
2023/12/27 04:25:12;;;;;;;5.75;4.60;;;;;;;9.29;62.03;95399.56;5033256;28;22085;-72
2023/12/27 04:27:43;;;;;;;6.13;5.18;;;;;;;9.31;61.86;95405.53;5033151;28;20183;-72
2023/12/27 04:30:12;;;;;;;6.07;4.60;;;;;;;9.32;61.85;95410.69;5032062;28;20269;-72
2023/12/27 04:32:41;;;;;;;7.50;4.53;;;;;;;9.30;62.10;95414.94;5033530;28;20255;-72
2023/12/27 04:35:09;;;;;;;7.10;4.85;;;;;;;9.30;62.10;95407.50;5031917;28;20206;-72
2023/12/27 04:37:37;;;;;;;6.40;5.00;;;;;;;9.28;62.01;95414.47;5032227;28;20195;-72
2023/12/27 04:40:05;;;;;;;5.95;4.40;;;;;;;9.27;62.35;95410.91;5032138;28;20198;-72
2023/12/27 04:42:34;;;;;;;6.68;5.05;;;;;;;9.27;62.16;95402.66;5032437;28;20201;-72
2023/12/27 04:45:07;;;;;;;7.50;4.50;;;;;;;9.29;62.35;95408.63;5032086;28;20213;-72
2023/12/27 04:47:34;;;;;;;6.70;4.85;;;;;;;9.30;62.18;95404.75;5032627;28;20194;-72
2023/12/27 04:50:01;;;;;;;6.35;4.97;;;;;;;9.29;62.31;95403.09;5032402;28;20202;-72
2023/12/27 04:52:27;;;;;;;6.82;5.00;;;;;;;9.30;62.43;95401.19;5032663;28;20622;-72
2023/12/27 04:54:54;;;;;;;5.20;4.70;;;;;;;9.28;62.42;95400.69;5032782;28;20224;-72
2023/12/27 04:57:21;;;;;;;4.57;4.07;;;;;;;9.24;62.53;95402.53;5033317;28;20206;-72
2023/12/27 04:59:48;;;;;;;5.10;4.43;;;;;;;9.21;62.81;95406.75;5033235;28;20206;-72
2023/12/27 05:02:21;;;;;;;6.32;4.55;;;;;;;9.22;63.05;95413.06;5033107;28;20202;-72
2023/12/27 05:04:50;;;;;;;6.25;4.70;;;;;;;9.23;63.01;95412.72;5032157;28;20207;-72
2023/12/27 05:07:17;;;;;;;6.72;4.68;;;;;;;9.23;62.99;95414.69;5086765;28;20336;-72
2023/12/27 05:09:44;;;;;;;4.65;4.25;;;;;;;9.24;63.10;95414.34;5115868;28;20215;-72
2023/12/27 05:12:13;;;;;;;6.10;4.40;;;;;;;9.25;63.21;95418.69;5115557;28;20237;-73
2023/12/27 05:14:42;;;;;;;5.85;4.13;;;;;;;9.24;63.26;95419.03;5115353;28;20604;-73
2023/12/27 05:17:10;;;;;;;5.50;4.13;;;;;;;9.24;63.23;95419.03;5115705;28;20234;-71
2023/12/27 05:19:40;;;;;;;5.45;4.10;;;;;;;9.21;63.38;95425.19;5115107;28;20216;-71
2023/12/27 05:22:10;;;;;;;5.63;4.35;;;;;;;9.18;63.30;95421.16;5115894;28;20172;-71
2023/12/27 05:24:37;;;;;;;6.78;4.25;;;;;;;9.16;63.57;95423.47;5097644;28;20195;-73
2023/12/27 05:27:05;;;;;;;5.13;3.78;;;;;;;9.14;64.01;95434.78;5115698;28;20257;-72
2023/12/27 05:29:34;;;;;;;5.32;3.95;;;;;;;9.13;64.10;95433.19;5098228;28;20196;-72
2023/12/27 05:32:03;;;;;;;5.82;4.10;;;;;;;9.13;63.88;95433.19;5097017;28;20191;-72
2023/12/27 05:34:30;;;;;;;7.70;4.30;;;;;;;9.13;64.03;95441.44;5097414;28;20270;-72
2023/12/27 05:37:03;;;;;;;8.70;4.30;;;;;;;9.12;64.00;95442.59;5097554;28;20195;-73
2023/12/27 05:39:31;;;;;;;4.53;4.13;;;;;;;9.11;64.07;95443.75;5115783;28;20272;-73
2023/12/27 05:41:59;;;;;;;5.13;4.50;;;;;;;9.08;64.17;95451.84;5097447;28;20231;-72
2023/12/27 05:44:27;;;;;;;5.45;4.10;;;;;;;9.06;64.29;95454.94;5114720;28;20588;-72
2023/12/27 05:46:57;;;;;;;4.82;4.32;;;;;;;9.04;64.52;95461.91;5115247;28;20208;-72
2023/12/27 05:49:25;;;;;;;5.32;3.92;;;;;;;9.02;64.41;95473.25;5097638;28;20203;-72
2023/12/27 05:51:52;;;;;;;5.20;4.50;;;;;;;9.00;64.34;95478.25;5096629;28;20304;-72
2023/12/27 05:54:20;;;;;;;6.10;4.47;;;;;;;9.00;64.51;95483.75;5115466;28;20250;-73
2023/12/27 05:56:49;;;;;;;6.35;5.75;;;;;;;8.97;64.62;95491.88;5114708;28;20211;-73
2023/12/27 05:59:17;;;;;;;5.80;5.10;;;;;;;8.87;64.91;95499.38;5115593;28;20180;-72
2023/12/27 06:01:47;;;;;;;6.10;5.20;;;;;;;8.79;65.24;95499.44;5097843;28;20244;-72
2023/12/27 06:04:15;;;;;;;6.28;5.03;;;;;;;8.70;65.53;95507.72;5098504;28;20200;-73
2023/12/27 06:06:43;;;;;;;5.20;4.57;;;;;;;8.70;65.82;95509.66;5114892;28;20274;-73
2023/12/27 06:09:11;;;;;;;6.43;5.03;;;;;;;8.72;65.74;95508.19;5114641;28;20619;-72
2023/12/27 06:11:43;;;;;;;5.68;4.43;;;;;;;8.81;66.12;95508.16;5115057;28;20201;-72
2023/12/27 06:14:10;;;;;;;7.20;4.72;;;;;;;8.89;65.93;95512.78;5115049;28;20180;-74
2023/12/27 06:16:37;;;;;;;6.00;4.55;;;;;;;8.97;65.66;95522.97;5098163;28;20626;-74
2023/12/27 06:19:04;;;;;;;6.22;4.97;;;;;;;8.99;65.59;95515.19;5073184;28;20208;-71
2023/12/27 06:21:32;;;;;;;6.05;4.95;;;;;;;8.98;65.51;95519.06;5115299;28;20253;-71
2023/12/27 06:24:01;;;;;;;8.07;5.20;;;;;;;9.01;65.38;95517.63;5115320;28;20229;-72
2023/12/27 06:26:28;;;;;;;7.55;4.55;;;;;;;8.95;65.37;95522.47;5098143;28;20222;-74
2023/12/27 06:29:00;;;;;;;7.82;5.18;;;;;;;8.91;65.56;95516.03;5115427;28;20280;-72
2023/12/27 06:31:29;;;;;;;6.70;5.30;;;;;;;8.89;65.69;95521.84;5115166;28;20184;-69
2023/12/27 06:33:58;;;;;;;6.43;5.03;;;;;;;8.87;65.75;95515.88;5097242;28;20209;-73
2023/12/27 06:36:26;;;;;;;8.70;5.70;;;;;;;8.90;65.87;95511.69;5115185;28;20249;-73
2023/12/27 06:38:55;;;;;;;5.13;4.55;;;;;;;8.91;66.01;95519.59;5114458;28;20199;-74
2023/12/27 06:41:24;;;;;;;6.80;4.80;;;;;;;8.93;65.92;95511.00;5114734;28;20628;-76
2023/12/27 06:43:52;;;;;;;5.35;4.38;;;;;;;8.97;65.97;95516.63;5097436;28;20203;-75
2023/12/27 06:46:22;;;;;;;5.53;4.65;;;;;;;8.98;65.72;95516.31;5100999;28;20573;-76
2023/12/27 06:48:50;;;;;;;6.22;4.90;;;;;;;9.00;66.01;95522.28;5118438;28;20203;-74
2023/12/27 06:51:19;;;;;;;5.63;4.45;;;;;;;9.03;66.01;95532.63;5100583;28;20215;-75
2023/12/27 06:53:48;;;;;;;5.57;4.80;;;;;;;9.07;66.04;95541.03;5101188;28;20249;-75
2023/12/27 06:56:16;;;;;;;6.60;5.15;;;;;;;9.10;65.60;95541.16;5100473;28;20211;-75
2023/12/27 06:58:44;;;;;;;8.80;4.93;;;;;;;9.11;65.76;95545.56;5101050;28;20204;-75
2023/12/27 07:01:15;;;;;;;8.43;5.45;;;;;;;9.10;65.78;95562.38;5118141;28;20249;-77
2023/12/27 07:03:46;;;;;;;7.60;6.13;;;;;;;9.05;66.04;95563.38;5100257;28;20199;-76
2023/12/27 07:06:13;;;;;;;7.82;6.00;;;;;;;9.00;66.65;95568.25;5102789;27;20290;-75
2023/12/27 07:08:43;;;;;;;6.85;5.10;;;;;;;9.01;66.48;95573.44;5139209;27;20221;-74
2023/12/27 07:11:18;;;;;;;6.13;5.32;;;;;;;9.06;66.59;95584.25;5139100;27;20244;-73
2023/12/27 07:13:47;;;;;;;7.35;6.25;;;;;;;9.06;66.57;95598.00;5049777;27;20216;-74
2023/12/27 07:16:15;;;;;;;7.28;5.25;;;;;;;9.16;66.28;95605.09;5138650;27;20513;-74
2023/12/27 07:18:43;;;;;;;7.22;5.38;;;;;;;9.22;65.98;95609.25;5050778;27;20207;-73
2023/12/27 07:21:10;;;;;;;7.50;4.90;;;;;;;9.31;65.64;95612.78;5051781;27;20255;-74
2023/12/27 07:23:38;;;;;;;6.85;5.03;;;;;;;9.37;64.82;95611.47;5137896;27;20235;-73
2023/12/27 07:26:15;;;;;;;6.47;4.60;;;;;;;9.46;64.89;95619.69;5050562;27;20627;-73
2023/12/27 07:28:42;;;;;;;6.38;4.38;;;;;;;9.54;64.59;95624.31;5137572;27;20198;-77
2023/12/27 07:31:09;;;;;;;6.90;4.40;;;;;;;9.65;64.23;95628.31;5137995;27;20205;-77
2023/12/27 07:33:38;;;;;;;5.05;4.50;;;;;;;9.77;64.12;95629.56;5051014;27;20195;-78
2023/12/27 07:36:10;;;;;;;4.75;4.00;;;;;;;9.88;63.93;95619.75;5050506;27;20226;-78
2023/12/27 07:38:37;;;;;;;4.68;4.20;;;;;;;10.00;63.81;95622.56;5051287;27;20194;-76
2023/12/27 07:41:08;;;;;;;4.65;4.13;;;;;;;10.10;63.33;95619.41;5049859;27;20207;-77
2023/12/27 07:43:35;;;;;;;6.45;4.43;;;;;;;10.20;62.99;95614.63;5054117;27;20198;-77
2023/12/27 07:46:04;;;;;;;4.72;4.28;;;;;;;10.28;62.81;95602.78;5137646;27;20251;-76
2023/12/27 07:48:31;;;;;;;5.93;4.40;;;;;;;10.36;62.49;95615.66;5051124;27;20190;-77
2023/12/27 07:50:59;;;;;;;6.88;4.25;;;;;;;10.48;62.38;95612.16;5050604;27;20248;-76
2023/12/27 07:53:28;;;;;;;5.13;4.47;;;;;;;10.56;61.69;95611.25;5137775;27;20199;-76
2023/12/27 07:55:56;;;;;;;5.57;4.22;;;;;;;10.67;61.74;95617.94;5049517;27;20215;-76
2023/12/27 07:58:26;;;;;;;5.05;4.03;;;;;;;10.81;61.27;95645.25;5137425;27;20207;-76
2023/12/27 08:00:57;;;;;;;5.45;4.60;;;;;;;10.91;61.18;95635.75;5049469;27;20242;-77
2023/12/27 08:03:25;;;;;;;7.45;4.50;;;;;;;10.98;60.83;95622.19;5050780;27;20183;-78
2023/12/27 08:05:52;;;;;;;7.68;4.50;;;;;;;11.11;60.66;95625.75;5050447;27;20199;-77
2023/12/27 08:08:19;;;;;;;5.03;4.43;;;;;;;11.18;60.37;95632.31;5137835;27;20287;-69
2023/12/27 08:10:51;;;;;;;6.07;4.70;;;;;;;11.28;60.39;95640.16;5137458;27;20275;-73
2023/12/27 08:13:29;;;;;;;5.10;4.60;;;;;;;11.39;59.65;95642.47;5136597;27;20251;-70
2023/12/27 08:15:57;;;;;;;6.75;4.80;;;;;;;11.47;59.21;95655.38;5137269;27;20258;-70
2023/12/27 08:18:26;;;;;;;5.97;4.68;;;;;;;11.55;59.50;95652.50;5050152;27;20251;-70
2023/12/27 08:20:53;;;;;;;7.10;4.68;;;;;;;11.66;58.74;95649.28;5051450;27;20538;-70
2023/12/27 08:23:20;;;;;;;5.32;4.43;;;;;;;11.77;58.53;95644.91;5137240;27;20179;-70
2023/12/27 08:25:52;;;;;;;6.15;4.70;;;;;;;11.87;57.80;95655.50;5049262;27;20195;-70
2023/12/27 08:28:20;;;;;;;6.03;3.85;;;;;;;11.95;57.91;95653.81;5050157;27;20226;-70
2023/12/27 08:30:50;;;;;;;6.00;4.30;;;;;;;12.11;57.74;95657.44;5050594;27;20175;-70
2023/12/27 08:33:18;;;;;;;5.47;4.55;;;;;;;12.24;57.61;95655.47;5137188;27;20183;-70
2023/12/27 08:35:46;;;;;;;7.18;4.50;;;;;;;12.39;57.67;95659.47;5137633;27;20192;-70
2023/12/27 08:38:16;;;;;;;5.68;4.55;;;;;;;12.51;56.43;95667.72;5050280;27;20211;-71
2023/12/27 08:40:47;;;;;;;5.03;4.50;;;;;;;12.62;55.89;95663.31;5136627;27;20217;-70
2023/12/27 08:43:20;;;;;;;6.65;4.70;;;;;;;12.70;56.45;95675.38;5049328;27;20191;-70
2023/12/27 08:45:47;;;;;;;6.88;5.10;;;;;;;12.74;55.55;95679.03;5136949;27;20199;-71
2023/12/27 08:48:15;;;;;;;5.10;4.40;;;;;;;12.86;55.16;95690.09;5136289;27;20309;-70
2023/12/27 08:50:45;;;;;;;7.20;4.38;;;;;;;12.97;55.35;95688.41;5135585;27;20266;-70
2023/12/27 08:53:12;;;;;;;5.60;4.70;;;;;;;13.09;55.24;95686.75;5136612;27;20213;-71
2023/12/27 08:55:40;;;;;;;5.80;4.10;;;;;;;13.20;54.69;95680.34;5136583;27;20179;-71
2023/12/27 08:58:09;;;;;;;7.30;4.90;;;;;;;13.23;54.28;95685.19;5049463;27;20203;-71
2023/12/27 09:00:38;;;;;;;6.07;5.00;;;;;;;13.29;54.16;95684.94;5136785;27;20191;-71
2023/12/27 09:03:05;;;;;;;5.68;4.50;;;;;;;13.28;53.85;95680.56;5136795;27;20199;-71
2023/12/27 09:05:32;;;;;;;5.63;4.50;;;;;;;13.22;53.59;95683.56;5136201;27;20195;-71
2023/12/27 09:08:00;;;;;;;6.55;4.78;;;;;;;13.27;53.58;95682.53;5052762;27;20241;-70
2023/12/27 09:10:26;;;;;;;5.25;4.75;;;;;;;13.39;54.11;95685.22;5052294;28;20223;-68
2023/12/27 09:12:54;;;;;;;6.90;5.07;;;;;;;13.56;53.13;95677.72;5053320;28;20193;-72
2023/12/27 09:15:21;;;;;;;7.72;4.80;;;;;;;13.72;53.13;95675.75;5035191;28;20602;-74
2023/12/27 09:17:52;;;;;;;5.13;4.55;;;;;;;13.89;52.35;95672.59;5035538;28;20221;-71
2023/12/27 09:20:20;;;;;;;4.82;4.03;;;;;;;13.98;52.39;95664.13;5034939;28;20262;-73
2023/12/27 09:22:49;;;;;;;4.95;4.15;;;;;;;14.13;52.05;95654.94;5052084;28;20227;-72
2023/12/27 09:25:19;;;;;;;5.47;4.20;;;;;;;14.39;51.44;95662.66;5052296;28;20189;-72
2023/12/27 09:27:50;;;;;;;6.43;4.03;;;;;;;14.55;51.54;95656.28;5034377;28;20256;-72
2023/12/27 09:30:21;;;;;;;7.15;4.45;;;;;;;14.78;50.40;95643.28;5034733;28;20222;-72
2023/12/27 09:32:52;;;;;;;6.40;4.32;;;;;;;15.25;50.34;95652.50;5035271;28;20193;-72
2023/12/27 09:35:21;;;;;;;5.13;3.83;;;;;;;15.74;48.33;95660.94;5034756;28;20201;-72
2023/12/27 09:37:53;;;;;;;3.90;3.30;;;;;;;16.10;46.90;95640.06;5035154;28;20211;-72
2023/12/27 09:40:34;;;;;;;4.35;3.05;;;;;;;16.52;45.17;95630.72;5035175;28;20319;-71
2023/12/27 09:43:05;;;;;;;5.35;3.20;;;;;;;16.78;44.27;95627.09;5052107;28;20196;-72
2023/12/27 09:45:34;;;;;;;5.25;3.55;;;;;;;16.97;43.35;95625.31;5032053;28;20262;-72
2023/12/27 09:48:05;;;;;;;3.90;3.00;;;;;;;17.22;42.58;95620.03;5051650;28;20645;-71
2023/12/27 09:50:35;;;;;;;3.88;3.00;;;;;;;17.30;42.28;95614.13;5034010;28;20213;-71
2023/12/27 09:53:03;;;;;;;3.55;2.72;;;;;;;17.22;41.59;95620.03;5051988;28;20182;-72
2023/12/27 09:55:32;;;;;;;5.03;3.03;;;;;;;17.44;41.96;95624.63;5052107;28;20209;-72
2023/12/27 09:58:04;;;;;;;3.63;2.97;;;;;;;17.69;41.11;95624.03;5051898;28;20182;-72
2023/12/27 10:00:43;;;;;;;3.20;2.88;;;;;;;17.65;40.92;95626.00;5034592;28;20266;-71
2023/12/27 10:03:14;;;;;;;3.97;3.03;;;;;;;17.52;41.21;95615.13;5033975;28;20542;-71
2023/12/27 10:05:50;;;;;;;3.92;2.97;;;;;;;17.40;40.62;95623.78;5033954;28;20624;-71
2023/12/27 10:08:21;;;;;;;4.25;2.70;;;;;;;17.18;41.02;95631.13;5014560;28;20210;-71
2023/12/27 10:10:48;;;;;;;4.18;3.10;;;;;;;16.89;42.01;95630.00;5032154;28;20186;-71
2023/12/27 10:13:18;;;;;;;4.47;2.95;;;;;;;16.61;42.40;95634.00;5015319;28;20275;-71
2023/12/27 10:15:45;;;;;;;3.42;3.10;;;;;;;16.27;43.34;95638.72;5031844;28;20195;-71
2023/12/27 10:18:16;;;;;;;3.33;2.95;;;;;;;16.06;43.38;95636.44;5032272;28;20231;-71
2023/12/27 10:20:48;;;;;;;3.80;3.08;;;;;;;15.99;43.50;95632.72;5034893;28;20187;-72
2023/12/27 10:23:18;;;;;;;4.70;3.13;;;;;;;15.86;44.05;95630.16;5035026;28;20175;-72
2023/12/27 10:25:45;;;;;;;3.65;3.35;;;;;;;15.64;44.90;95625.38;5018631;28;20236;-72
2023/12/27 10:28:31;;;;;;;6.25;3.50;;;;;;;15.39;45.57;95613.84;5017305;28;20653;-72
2023/12/27 10:30:58;;;;;;;4.25;3.45;;;;;;;15.04;45.95;95609.28;5035035;28;20584;-72
2023/12/27 10:33:40;;;;;;;3.20;2.90;;;;;;;14.87;46.42;95598.63;5035101;28;20209;-72
2023/12/27 10:36:10;;;;;;;4.18;3.30;;;;;;;14.73;47.20;95593.59;5018612;28;20198;-71
2023/12/27 10:38:37;;;;;;;4.10;3.58;;;;;;;14.66;47.26;95587.91;5017783;28;20202;-71
2023/12/27 10:41:07;;;;;;;3.78;3.10;;;;;;;14.58;48.31;95600.84;5035437;28;20249;-70
2023/12/27 10:43:35;;;;;;;3.65;2.90;;;;;;;14.36;48.89;95594.00;5017295;28;20247;-72
2023/12/27 10:46:09;;;;;;;5.10;3.47;;;;;;;14.33;50.78;95594.72;5035039;28;20207;-71
2023/12/27 10:48:40;;;;;;;3.45;3.08;;;;;;;14.28;50.27;95597.00;5034448;28;20240;-71
2023/12/27 10:51:09;;;;;;;3.97;2.88;;;;;;;14.24;52.62;95596.13;5017628;28;20207;-72
2023/12/27 10:53:36;;;;;;;4.15;2.65;;;;;;;14.14;51.10;95601.06;5017020;28;20629;-71
2023/12/27 10:56:06;;;;;;;3.75;3.10;;;;;;;14.00;52.40;95599.97;5034457;28;20218;-70
2023/12/27 10:58:38;;;;;;;4.63;3.17;;;;;;;13.80;52.04;95605.47;5017705;28;20222;-72
2023/12/27 11:01:05;;;;;;;4.47;3.00;;;;;;;13.64;52.00;95586.06;5026723;28;20186;-72
2023/12/27 11:03:34;;;;;;;3.38;2.75;;;;;;;13.44;51.64;95593.53;5035708;28;20229;-72
2023/12/27 11:06:04;;;;;;;3.35;3.05;;;;;;;13.30;52.42;95593.16;5034774;28;20242;-71
2023/12/27 11:08:36;;;;;;;4.35;3.20;;;;;;;13.25;53.56;95601.72;5053624;28;20294;-72
2023/12/27 11:11:05;;;;;;;4.97;3.08;;;;;;;13.17;52.31;95608.22;5054370;28;20182;-72
2023/12/27 11:13:36;;;;;;;3.60;3.20;;;;;;;13.13;53.32;95602.59;5035880;28;20205;-72
2023/12/27 11:16:04;;;;;;;3.95;3.10;;;;;;;13.17;53.70;95614.56;5054488;28;20186;-71
2023/12/27 11:18:32;;;;;;;5.38;3.22;;;;;;;13.35;53.84;95611.47;5054515;28;20178;-72
2023/12/27 11:21:01;;;;;;;3.53;3.15;;;;;;;13.62;54.64;95613.34;5036710;28;20216;-72
2023/12/27 11:23:30;;;;;;;4.95;3.38;;;;;;;13.71;52.51;95608.41;5054124;28;20563;-70
2023/12/27 11:26:01;;;;;;;6.20;3.50;;;;;;;13.97;54.08;95613.38;5053752;28;20202;-69
2023/12/27 11:28:38;;;;;;;4.53;3.40;;;;;;;14.42;52.23;95612.00;5037289;28;20213;-69
2023/12/27 11:31:06;;;;;;;5.00;3.50;;;;;;;15.19;50.31;95617.88;5053119;28;20196;-70
2023/12/27 11:33:39;;;;;;;3.35;3.05;;;;;;;16.39;47.42;95598.72;5036480;28;20189;-68
2023/12/27 11:36:12;;;;;;;3.88;3.45;;;;;;;17.73;45.03;95606.16;5036489;28;20202;-68
2023/12/27 11:38:46;;;;;;;4.53;3.35;;;;;;;18.72;43.48;95602.41;5053872;28;20273;-68
2023/12/27 11:41:13;;;;;;;3.33;3.03;;;;;;;19.34;38.51;95603.41;5036940;28;20194;-69
2023/12/27 11:43:56;;;;;;;3.67;3.28;;;;;;;20.07;38.89;95600.25;5053542;28;20576;-70
2023/12/27 11:46:27;;;;;;;3.88;3.58;;;;;;;20.45;36.66;95598.59;5036596;28;20194;-70
2023/12/27 11:48:58;;;;;;;4.60;3.40;;;;;;;20.58;37.31;95604.59;5035623;28;20221;-73